Tiempo atmosférico en la estación meteorológica de Arevalo, Ávila (820 m.)



Fecha
DESCASC
Temp. máxima en grados centígrados (hora)
DESCASC
Temp. mínima en grados centígrados (hora)
DESCASC
Temp. media en grados centígrados
DESCASC
Racha de viento máxima en m/sg (hora)
DESCASC
Velocidad máxima media en intervalos de 10 minutos(hora)
DESCASC
Precipitaciones diarias en mm
DESCASC
Precipitaciones de 00:00 a 06:00 en mm
DESCASC
Precipitaciones de 06:00 a 12:00 en mm
DESCASC
Precipitaciones de 12:00 a 18:00 en mm
DESCASC
Precipitaciones de 18:00 a 24:00 en mm
DESCASC
16-02-2020 16.9 (16:30) 1.7 (08:30) 9.3 10.28 (15:10) 6.39 (15:10) 0 0 0 0 0
15-02-2020 15.3 (16:10) -0.6 (07:20) 7.4 6.11 (14:50) 4.72 (21:10) 0 0 0 0 0
14-02-2020 13.6 (16:40) 1.4 (08:30) 7.5 4.17 (15:00) 2.78 (15:50) 0 0 0 0 0
13-02-2020 13.4 (15:20) 5 (00:00) 9.2 8.06 (16:20) 5 (05:20) 0 0 0 0 0
12-02-2020 14.7 (13:40) 5.8 (00:00) 10.3 4.44 (04:20) 2.5 (02:20) 0 0 0 0 0
11-02-2020 13.1 (14:00) 2.7 (00:00) 7.9 4.44 (14:10) 2.78 (14:50) 0 0 0 0 0
10-02-2020 14.5 (17:20) 7.1 (00:00) 10.8 8.33 (16:00) 5 (15:10) 0 0 0 0 0
09-02-2020 12.6 (15:30) 2.2 (00:00) 7.4 8.61 (14:40) 5.56 (13:20) 0 0 0 0 0
08-02-2020 12.4 (17:10) 1.6 (00:00) 7 8.06 (17:10) 5.28 (17:20) 1.8 0 1.4 0.4 0
07-02-2020 14.2 (16:30) 0.9 (00:00) 7.5 6.39 (21:20) 4.17 (21:20) 0 0 0 0 0
06-02-2020 16.6 (14:50) -0.3 (00:00) 8.2 5.28 (03:10) 3.61 (15:50) 0 0 0 0 0
05-02-2020 12.1 (17:10) -1.5 (-00:0) 5.3 6.11 (01:30) 3.61 (01:30) 0 0 0 0 0
04-02-2020 14.7 (14:50) 1.4 (00:00) 8 6.11 (16:00) 4.72 (16:00) 0 0 0 0 0
03-02-2020 17.7 (14:00) 2.7 (08:10) 10.2 4.44 (14:40) 2.78 (14:30) 0 0 0 0 0
02-02-2020 16.8 (15:40) 4.8 (00:00) 10.8 4.17 (00:10) 2.78 (00:10) 0 0 0 0 0
01-02-2020 15.7 (15:10) 10.5 (00:00) 13.1 9.72 (02:20) 6.94 (02:20) 0.2 0.2 0 0 0
31-01-2020 14.7 (16:50) 9 (00:00) 11.8 10 (01:20) 6.39 (00:20) 0.8 0.2 0.2 0 0.4
30-01-2020 10.1 (14:20) 4.3 (00:00) 7.2 9.72 (22:10) 6.94 (22:20) 0.4 0 0 0 0.4
29-01-2020 11.8 (16:50) 8.5 (00:00) 10.2 10.56 (16:50) 6.11 (16:50) 2.6 0 0 2.4 0.2
28-01-2020 11.7 (12:10) 8.5 (00:00) 10.1 12.5 (12:40) 8.61 (12:40) 1 0.4 0 0.6 0
27-01-2020 10.8 (14:30) 2 (00:00) 6.4 17.78 (15:10) 11.67 (15:10) 0 0 0 0 0
26-01-2020 9 (15:20) 1.1 (00:00) 5.1 7.22 (13:30) 4.17 (13:30) 0 0 0 0 0
25-01-2020 10 (14:30) 1 (00:00) 5.5 5.56 (17:10) 3.61 (17:10) 2.4 1.2 1.2 0 0
24-01-2020 9.2 (13:50) 1.6 (00:00) 5.4 7.78 (13:00) 4.72 (13:00) 2.2 0 2.2 0 0
23-01-2020 10.7 (14:40) 1.4 (00:00) 6 10 (16:00) 6.39 (13:20) 0 0 0 0 0
22-01-2020 9.7 (14:50) 2 (00:00) 5.8 9.17 (14:40) 5 (02:00) 0 0 0 0 0

Gráficas

Temp. máximas Temp. mínimas Temp. medias Precipitaciones Rachas de viento máximas Velocidades máximas media en intervalos de 10 minutos

Datos horarios

Fecha y hora oficial Temperatura (ºC) Velocidad del viento (km/h) Dirección del viento Racha (km/h) Dirección de racha Precipitación (mm) Presión (hPa) Tendencia (hPa) Humedad (%)
2020-02-20 23:00:00 1.6 0 Calma 14 Sur 0 -- -- 77
2020-02-20 22:00:00 3.2 9 Sur 13 Sur 0 -- -- 74
2020-02-20 21:00:00 5.2 0 Calma 5 Sur 0 -- -- 68
2020-02-20 20:00:00 8.3 0 Calma 3 Sur 0 -- -- 58
2020-02-20 19:00:00 12.5 0 Calma 8 Nordeste 0 -- -- 45
2020-02-20 18:00:00 14.5 4 Este 12 Nordeste 0 -- -- 38
2020-02-20 17:00:00 14.7 6 Nordeste 15 Sudeste 0 -- -- 42
2020-02-20 16:00:00 14.5 5 Nordeste 19 Norte 0 -- -- 47
2020-02-20 15:00:00 13.4 11 Norte 19 Norte 0 -- -- 53
2020-02-20 14:00:00 12.8 11 Norte 17 Noroeste 0 -- -- 54
2020-02-20 13:00:00 12.3 9 Norte 17 Norte 0 -- -- 57
2020-02-20 12:00:00 11.6 2 Norte 5 Norte 0 -- -- 56
2020-02-20 11:00:00 7.6 3 Sur 7 Sudoeste 0 -- -- 67
2020-02-20 10:00:00 2.7 5 Sur 8 Sur 0 -- -- 75
2020-02-20 09:00:00 -1.5 5 Sudoeste 9 Sur 0 -- -- 88
2020-02-20 08:00:00 -2.6 4 Sur 9 Sur 0 -- -- 86
2020-02-20 07:00:00 -2.3 6 Sur 10 Sur 0 -- -- 85
2020-02-20 06:00:00 -- -- -- -- -- -- -- -- --
2020-02-20 05:00:00 -1.9 5 Sur 9 Sur 0 -- -- 85
2020-02-20 04:00:00 -1 5 Sudoeste 15 Sur 0 -- -- 83
2020-02-20 03:00:00 -2.1 6 Sur 13 Sur 0 -- -- 86
2020-02-20 02:00:00 -1.4 9 Sur 12 Sur 0 -- -- 86
2020-02-20 01:00:00 -0.9 5 Sudoeste 8 Sur 0 -- -- 82
2020-02-20 00:00:00 -0.1 0 Calma 10 Sudoeste 0 -- -- 80
2020-02-19 23:00:00 0.6 0 Calma 8 Sur 0 -- -- 79
2020-02-19 22:00:00 1.6 7 Sudoeste 9 Sur 0 -- -- 76
2020-02-19 21:00:00 3.4 0 Calma 3 Sur 0 -- -- 68
2020-02-19 20:00:00 6.6 0 Calma 4 Sudeste 0 -- -- 58
2020-02-19 19:00:00 10.4 3 Sudeste 6 Este 0 -- -- 43
2020-02-19 18:00:00 12.4 2 Este 9 Este 0 -- -- 38
2020-02-19 17:00:00 12.5 6 Este 11 Sudeste 0 -- -- 35
2020-02-19 16:00:00 12.7 5 Nordeste 11 Nordeste 0 -- -- 40
2020-02-19 15:00:00 11.6 4 Nordeste 13 Este 0 -- -- 42
2020-02-19 14:00:00 10.5 5 Sudeste 17 Sudeste 0 -- -- 46
2020-02-19 13:00:00 9.2 9 Este 18 Sudeste 0 -- -- 49
2020-02-19 12:00:00 7.4 7 Nordeste 14 Este 0 -- -- 60
2020-02-19 11:00:00 3.8 3 Oeste 8 Sudoeste 0 -- -- 80
2020-02-19 10:00:00 1 3 Sur 7 Sudeste 0 -- -- 87
2020-02-19 09:00:00 -3 3 Sudoeste 6 Sur 0 -- -- 93
2020-02-19 08:00:00 -4.7 0 Calma 6 Sur 0 -- -- 93
2020-02-19 07:00:00 -4.2 2 Noroeste 5 Sudoeste 0 -- -- 93
2020-02-19 06:00:00 -3.4 4 Sudoeste 6 Sudoeste 0 -- -- 94
2020-02-19 05:00:00 -3.3 0 Calma 7 Sur 0 -- -- 94
2020-02-19 04:00:00 -3 4 Sudoeste 8 Sur 0 -- -- 93
2020-02-19 03:00:00 -2.4 3 Sudoeste 7 Sudoeste 0 -- -- 92
2020-02-19 02:00:00 -1.5 4 Sur 8 Sur 0 -- -- 89
2020-02-19 01:00:00 -0.3 0 Calma 7 Oeste 0 -- -- 88
2020-02-19 00:00:00 -0.1 6 Sudoeste 10 Sur 0 -- -- 88
2020-02-18 23:00:00 1.5 2 Sur 8 Norte 0 -- -- 84
2020-02-18 22:00:00 3.1 5 Nordeste 9 Norte 0 -- -- 79
2020-02-18 21:00:00 4.4 6 Norte 16 Nordeste 0 -- -- 75
2020-02-18 20:00:00 5.9 8 Norte 14 Norte 0 -- -- 73
2020-02-18 19:00:00 8.2 6 Norte 13 Norte 0 -- -- 66
2020-02-18 18:00:00 10.1 9 Norte 16 Norte 0 -- -- 58
2020-02-18 17:00:00 11 7 Norte 18 Nordeste 0 -- -- 58
2020-02-18 16:00:00 11.1 6 Norte 26 Noroeste 0 -- -- 58
2020-02-18 15:00:00 10 8 Este 15 Norte 0 -- -- 62
2020-02-18 14:00:00 6.6 6 Este 15 Nordeste 0 -- -- 83
2020-02-18 13:00:00 2.3 5 Nordeste 15 Nordeste 0 -- -- 97
2020-02-18 12:00:00 1.9 7 Norte 12 Norte 0 -- -- 98
2020-02-18 11:00:00 1 5 Norte 9 Norte 0 -- -- 96
2020-02-18 10:00:00 -0.2 4 Norte 7 Norte 0 -- -- 95
2020-02-18 09:00:00 -2.5 2 Noroeste 4 Noroeste 0 -- -- 96
2020-02-18 08:00:00 -3.2 3 Oeste 9 Sur 0 -- -- 95
2020-02-18 07:00:00 -2.9 3 Sudoeste 8 Sur 0 -- -- 94
2020-02-18 06:00:00 -2.2 3 Oeste 8 Sudoeste 0 -- -- 95
2020-02-18 05:00:00 -1.3 4 Sur 9 Sur 0 -- -- 95
2020-02-18 04:00:00 -1.4 3 Sur 10 Sur 0 -- -- 94
2020-02-18 03:00:00 -0.7 6 Sur 10 Sur 0 -- -- 94
2020-02-18 02:00:00 0 0 Calma 5 Sudoeste 0 -- -- 93
2020-02-18 01:00:00 0.6 3 Sur 9 Sudoeste 0 -- -- 93
2020-02-18 00:00:00 1.6 3 Sudoeste 12 Sur 0 -- -- 92
2020-02-17 23:00:00 2.9 5 Sudoeste 9 Sur 0 -- -- 89
2020-02-17 22:00:00 4.6 4 Sudoeste 10 Oeste 0 -- -- 83
2020-02-17 21:00:00 5.4 3 Sudeste 13 Nordeste 0 -- -- 81
2020-02-17 20:00:00 7.5 3 Oeste 10 Oeste 0 -- -- 73
2020-02-17 19:00:00 9.4 5 Oeste 17 Noroeste 0 -- -- 68
2020-02-17 18:00:00 11.2 7 Noroeste 23 Oeste 0 -- -- 59
2020-02-17 17:00:00 11.2 11 Noroeste 36 Oeste 0 -- -- 60
2020-02-17 16:00:00 12.1 13 Noroeste 33 Noroeste 0 -- -- 69
2020-02-17 15:00:00 12.4 15 Noroeste 30 Noroeste 0 -- -- 75
2020-02-17 14:00:00 10.9 14 Noroeste 29 Noroeste 0 -- -- 90
2020-02-17 13:00:00 11.3 18 Noroeste 35 Noroeste 0 -- -- 90
2020-02-17 12:00:00 11.9 18 Oeste 39 Oeste 0 -- -- 87
2020-02-17 11:00:00 12 23 Oeste 42 Oeste 0 -- -- 84
2020-02-17 10:00:00 11.1 28 Oeste 41 Oeste 0 -- -- 85
2020-02-17 09:00:00 7.7 7 Sudoeste 13 Sudoeste 0 -- -- 92
2020-02-17 08:00:00 8.1 8 Sudoeste 22 Sudoeste 0 -- -- 90
2020-02-17 07:00:00 7.8 13 Sudoeste 20 Sudoeste 0 -- -- 93
2020-02-17 06:00:00 8.2 12 Sudoeste 26 Sudoeste 0 -- -- 92
2020-02-17 05:00:00 7.9 13 Oeste 21 Sudoeste 0 -- -- 94
2020-02-17 04:00:00 6.7 6 Sudoeste 10 Sudoeste 0 -- -- 92
2020-02-17 03:00:00 6.8 5 Sudoeste 14 Sudoeste 0 -- -- 90
2020-02-17 02:00:00 7.4 9 Sudoeste 18 Sur 0 -- -- 92
2020-02-17 01:00:00 7.7 9 Oeste 16 Oeste 0 -- -- 92
2020-02-17 00:00:00 8.8 11 Oeste 23 Oeste 0 -- -- 87
2020-02-16 23:00:00 8.7 9 Sudoeste 21 Oeste 0 -- -- 85
2020-02-16 22:00:00 9.2 12 Oeste 27 Oeste 0 -- -- 83
2020-02-16 21:00:00 10.3 16 Oeste 30 Noroeste 0 -- -- 79
2020-02-16 20:00:00 10.9 15 Oeste 23 Oeste 0 -- -- 72
2020-02-16 19:00:00 13.1 14 Oeste 22 Oeste 0 -- -- 63
2020-02-16 18:00:00 15.7 13 Oeste 30 Oeste 0 -- -- 56
2020-02-16 17:00:00 16.4 16 Oeste 35 Oeste 0 -- -- 52
2020-02-16 16:00:00 16.5 21 Oeste 37 Oeste 0 -- -- 50
2020-02-16 15:00:00 16.7 19 Oeste 35 Oeste 0 -- -- 47
2020-02-16 14:00:00 16.2 20 Oeste 33 Oeste 0 -- -- 51
2020-02-16 13:00:00 15.3 12 Oeste 25 Oeste 0 -- -- 56
2020-02-16 12:00:00 13.5 4 Noroeste 12 Sur 0 -- -- 61
2020-02-16 11:00:00 10.6 7 Sur 15 Sur 0 -- -- 73
2020-02-16 10:00:00 5.5 9 Sur 17 Sur 0 -- -- 93
2020-02-16 09:00:00 2.5 7 Sur 15 Sur 0 -- -- 98
2020-02-16 08:00:00 1.9 9 Sur 14 Sur 0 -- -- 98
2020-02-16 07:00:00 3.1 10 Sur 16 Sur 0 -- -- 97
2020-02-16 06:00:00 3.9 8 Sur 15 Sur 0 -- -- 96
2020-02-16 05:00:00 4.7 12 Sur 15 Sur 0 -- -- 98
2020-02-16 04:00:00 3.5 5 Sur 7 Sur 0 -- -- 97
2020-02-16 03:00:00 3 2 Sur 8 Sur 0 -- -- 96
2020-02-16 02:00:00 3.7 0 Calma 9 Sur 0 -- -- 96
2020-02-16 01:00:00 4.2 3 Sudoeste 12 Sur 0 -- -- 95
2020-02-16 00:00:00 5.5 9 Sur 14 Sur 0 -- -- 92
2020-02-15 23:00:00 6.7 9 Sur 22 Oeste 0 -- -- 88
2020-02-15 22:00:00 8.6 8 Sudoeste 21 Oeste 0 -- -- 80
2020-02-15 21:00:00 9.8 16 Oeste 22 Oeste 0 -- -- 73
2020-02-15 20:00:00 9.6 5 Oeste 7 Noroeste 0 -- -- 73
2020-02-15 19:00:00 12.8 4 Sudoeste 6 Oeste 0 -- -- 69
2020-02-15 18:00:00 14.6 3 Noroeste 10 Oeste 0 -- -- 62
2020-02-15 17:00:00 15 5 Noroeste 17 Noroeste 0 -- -- 57
2020-02-15 16:00:00 15.1 11 Noroeste 19 Noroeste 0 -- -- 54
2020-02-15 15:00:00 14.9 10 Noroeste 22 Noroeste 0 -- -- 62
2020-02-15 14:00:00 14.4 7 Sudoeste 16 Oeste 0 -- -- 67
2020-02-15 13:00:00 12.9 5 Oeste 16 Noroeste 0 -- -- 75
2020-02-15 12:00:00 11.7 8 Noroeste 19 Noroeste 0 -- -- 81
2020-02-15 11:00:00 9.2 4 Sudoeste 10 Sur 0 -- -- 88
2020-02-15 10:00:00 3.8 6 Sur 10 Sur 0 -- -- 97
2020-02-15 09:00:00 0.6 4 Sudoeste 11 Sur 0 -- -- 98
2020-02-15 08:00:00 -0.6 3 Sudoeste 8 Sudoeste 0 -- -- 98
2020-02-15 07:00:00 -0.3 2 Sur 13 Sur 0 -- -- 97
2020-02-15 06:00:00 0.3 5 Sur 8 Sur 0 -- -- 97
2020-02-15 05:00:00 0.7 5 Sur 9 Sur 0 -- -- 97
2020-02-15 04:00:00 1 0 Calma 9 Sur 0 -- -- 97
2020-02-15 03:00:00 1.5 5 Sudoeste 8 Sur 0 -- -- 97
2020-02-15 02:00:00 1.7 5 Oeste 11 Sudoeste 0 -- -- 96
2020-02-15 01:00:00 2.2 4 Sudoeste 10 Sudoeste 0 -- -- 96
2020-02-15 00:00:00 3.1 8 Sur 10 Sudoeste 0 -- -- 96
2020-02-14 23:00:00 3.6 6 Sur 9 Sur 0 -- -- 94
2020-02-14 22:00:00 4.8 3 Sur 6 Sudoeste 0 -- -- 91
2020-02-14 21:00:00 6.2 0 Calma 4 Nordeste 0 -- -- 88
2020-02-14 20:00:00 8.4 4 Este 9 Sudeste 0 -- -- 83
2020-02-14 19:00:00 10.8 5 Norte 8 Norte 0 -- -- 75
2020-02-14 18:00:00 12.5 5 Este 11 Nordeste 0 -- -- 69
2020-02-14 17:00:00 13.1 6 Este 13 Este 0 -- -- 68
2020-02-14 16:00:00 12.5 8 Norte 15 Norte 0 -- -- 70
2020-02-14 15:00:00 12.3 9 Noroeste 15 Norte 0 -- -- 71
2020-02-14 14:00:00 12.6 3 Norte 12 Norte 0 -- -- 73
2020-02-14 13:00:00 12.3 5 Este 10 Sudeste 0 -- -- 74
2020-02-14 12:00:00 10.4 3 Este 8 Este 0 -- -- 80
2020-02-14 11:00:00 7.7 2 Nordeste 7 Sur 0 -- -- 88
2020-02-14 10:00:00 5.2 2 Sur 6 Sur 0 -- -- 98
2020-02-14 09:00:00 2 4 Sur 9 Sur 0 -- -- 100
2020-02-14 08:00:00 1.6 6 Sur 8 Sudoeste 0 -- -- 99
2020-02-14 07:00:00 1.9 3 Sur 10 Sudoeste 0 -- -- 99
2020-02-14 06:00:00 2.9 6 Sudoeste 8 Sur 0 -- -- 98
2020-02-14 05:00:00 4.4 6 Sur 8 Sudoeste 0 -- -- 98
2020-02-14 04:00:00 3.9 5 Sur 8 Sur 0 -- -- 99
2020-02-14 03:00:00 3.7 2 Sur 9 Sur 0 -- -- 98
2020-02-14 02:00:00 3.6 3 Sudoeste 8 Sur 0 -- -- 97
2020-02-14 01:00:00 4.4 4 Sur 9 Sur 0 -- -- 96
2020-02-14 00:00:00 5 6 Sur 14 Oeste 0 -- -- 93
2020-02-13 23:00:00 6.7 8 Oeste 15 Oeste 0 -- -- 93
2020-02-13 22:00:00 7.2 5 Oeste 12 Noroeste 0 -- -- 90
2020-02-13 21:00:00 7.8 5 Noroeste 12 Oeste 0 -- -- 85
2020-02-13 20:00:00 8.8 4 Noroeste 15 Noroeste 0 -- -- 82
2020-02-13 19:00:00 11 9 Noroeste 23 Noroeste 0 -- -- 74
2020-02-13 18:00:00 12.3 9 Noroeste 21 Oeste 0 -- -- 73
2020-02-13 17:00:00 12.5 10 Noroeste 29 Noroeste 0 -- -- 71
2020-02-13 16:00:00 12.5 17 Noroeste 27 Noroeste 0 -- -- 70
2020-02-13 15:00:00 12.6 14 Noroeste 23 Noroeste 0 -- -- 71
2020-02-13 14:00:00 12.7 15 Oeste 27 Oeste 0 -- -- 70
2020-02-13 13:00:00 11.2 11 Oeste 20 Oeste 0 -- -- 81
2020-02-13 12:00:00 9.9 11 Oeste 19 Oeste 0 -- -- 87
2020-02-13 11:00:00 9.3 12 Oeste 19 Oeste 0 -- -- 91
2020-02-13 10:00:00 8.7 10 Noroeste 18 Norte 0 -- -- 96
2020-02-13 09:00:00 9 6 Noroeste 12 Oeste 0 -- -- 95
2020-02-13 08:00:00 8.9 5 Sudoeste 15 Oeste 0 -- -- 96
2020-02-13 07:00:00 9 8 Oeste 21 Noroeste 0 -- -- 96
2020-02-13 06:00:00 8.9 13 Oeste 28 Oeste 0 -- -- 96
2020-02-13 05:00:00 8.8 15 Oeste 27 Oeste 0 -- -- 99
2020-02-13 04:00:00 8.4 11 Oeste 20 Oeste 0 -- -- 100
2020-02-13 03:00:00 8.2 5 Sur 19 Oeste 0 -- -- 99
2020-02-13 02:00:00 7.4 10 Sudoeste 17 Sudoeste 0 -- -- 98
2020-02-13 01:00:00 7.8 5 Sudoeste 12 Oeste 0 -- -- 94
2020-02-13 00:00:00 8.5 8 Oeste 11 Oeste 0 -- -- 97
2020-02-12 23:00:00 7.4 3 Sudoeste 10 Sudoeste 0 -- -- 95
2020-02-12 22:00:00 8.5 3 Sudoeste 4 Sur 0 -- -- 93
2020-02-12 21:00:00 9.8 0 Calma 7 Sudoeste 0 -- -- 90
2020-02-12 20:00:00 11.1 4 Norte 9 Norte 0 -- -- 86
2020-02-12 19:00:00 12.2 3 Norte 10 Norte 0 -- -- 81
2020-02-12 18:00:00 13.1 6 Norte 13 Norte 0 -- -- 77
2020-02-12 17:00:00 14 8 Norte 13 Norte 0 -- -- 69
2020-02-12 16:00:00 14.2 6 Norte 13 Norte 0 -- -- 70
2020-02-12 15:00:00 14.6 3 Nordeste 9 Norte 0 -- -- 69
2020-02-12 14:00:00 14.5 3 Sudeste 12 Sudeste 0 -- -- 71
2020-02-12 13:00:00 13.3 6 Este 11 Sudeste 0 -- -- 73
2020-02-12 12:00:00 10.9 4 Sudoeste 7 Sur 0 -- -- 88
2020-02-12 11:00:00 8.5 2 Sudeste 5 Norte 0 -- -- 98
2020-02-12 10:00:00 6.9 3 Sur 10 Sudoeste 0 -- -- 99
2020-02-12 09:00:00 5.9 8 Sur 12 Sur 0 -- -- 99
2020-02-12 08:00:00 6.1 5 Sur 8 Sur 0 -- -- 98
2020-02-12 07:00:00 6.6 4 Sudoeste 6 Sudoeste 0 -- -- 98
2020-02-12 06:00:00 7.2 4 Sudoeste 8 Sur 0 -- -- 97
2020-02-12 05:00:00 7.3 3 Oeste 16 Norte 0 -- -- 97
2020-02-12 04:00:00 7.1 0 Calma 6 Sur 0 -- -- 98
2020-02-12 03:00:00 6.9 0 Calma 14 Sudoeste 0 -- -- 97
2020-02-12 02:00:00 7.6 7 Sur 13 Sur 0 -- -- 96
2020-02-12 01:00:00 8 5 Sudoeste 8 Sur 0 -- -- 95
2020-02-12 00:00:00 8.3 4 Sudoeste 6 Sudoeste 0 -- -- 95
2020-02-11 23:00:00 8.9 5 Sudoeste 8 Sudoeste 0 -- -- 94
2020-02-11 22:00:00 9.5 0 Calma 5 Sur 0 -- -- 91
2020-02-11 21:00:00 10.1 2 Noroeste 4 Oeste 0 -- -- 88
2020-02-11 20:00:00 11.1 2 Este 7 Sudeste 0 -- -- 84
2020-02-11 19:00:00 11.7 3 Sudeste 6 Sudeste 0 -- -- 81
2020-02-11 18:00:00 12.2 3 Norte 10 Noroeste 0 -- -- 79
2020-02-11 17:00:00 12.3 7 Noroeste 14 Noroeste 0 -- -- 78
2020-02-11 16:00:00 12.3 6 Noroeste 15 Oeste 0 -- -- 76
2020-02-11 15:00:00 11.5 9 Norte 16 Noroeste 0 -- -- 79
2020-02-11 14:00:00 13.1 8 Noroeste 15 Oeste 0 -- -- 76
2020-02-11 13:00:00 11.6 5 Oeste 12 Oeste 0 -- -- 82
2020-02-11 12:00:00 10.9 8 Noroeste 14 Noroeste 0 -- -- 86
2020-02-11 11:00:00 9.3 4 Sudoeste 7 Sudoeste 0 -- -- 92
2020-02-11 10:00:00 6.1 3 Sur 5 Sur 0 -- -- 100
2020-02-11 09:00:00 2.9 4 Sur 10 Sur 0 -- -- 100
2020-02-11 08:00:00 3.3 5 Sur 10 Sur 0 -- -- 100
2020-02-11 07:00:00 3.4 6 Sur 12 Sudoeste 0 -- -- 100
2020-02-11 06:00:00 3.4 6 Sur 12 Sur 0 -- -- 99
2020-02-11 05:00:00 4 5 Sur 6 Sur 0 -- -- 99
2020-02-11 04:00:00 4.8 6 Sur 8 Sur 0 -- -- 98
2020-02-11 03:00:00 5.3 5 Sudoeste 9 Sudoeste 0 -- -- 97
2020-02-11 02:00:00 5.9 4 Sudoeste 12 Sudoeste 0 -- -- 95
2020-02-11 01:00:00 7.3 5 Sudoeste 10 Sur 0 -- -- 95
2020-02-11 00:00:00 7.1 5 Sudoeste 13 Oeste 0 -- -- 94
2020-02-10 23:00:00 8.4 9 Oeste 21 Oeste 0 -- -- 93
2020-02-10 22:00:00 8.2 11 Sudoeste 17 Sudoeste 0 -- -- 94
2020-02-10 21:00:00 8.7 5 Sudoeste 12 Oeste 0 -- -- 91
2020-02-10 20:00:00 10.2 6 Oeste 16 Noroeste 0 -- -- 87
2020-02-10 19:00:00 11.5 11 Noroeste 22 Noroeste 0 -- -- 82
2020-02-10 18:00:00 13.7 15 Noroeste 27 Noroeste 0 -- -- 74
2020-02-10 17:00:00 14.4 14 Oeste 28 Oeste 0 -- -- 73
2020-02-10 16:00:00 13.9 15 Noroeste 30 Oeste 0 -- -- 75
2020-02-10 15:00:00 13.8 15 Noroeste 28 Noroeste 0 -- -- 76
2020-02-10 14:00:00 13 15 Oeste 28 Oeste 0 -- -- 79
2020-02-10 13:00:00 12.6 13 Oeste 26 Oeste 0 -- -- 81
2020-02-10 12:00:00 12.2 15 Oeste 28 Oeste 0 -- -- 81
2020-02-10 11:00:00 11.4 12 Oeste 22 Sudoeste 0 -- -- 86
2020-02-10 10:00:00 10.2 12 Sudoeste 27 Sudoeste 0 -- -- 90
2020-02-10 09:00:00 9.6 16 Oeste 28 Sudoeste 0 -- -- 91
2020-02-10 08:00:00 9.1 9 Oeste 22 Oeste 0 -- -- 92
2020-02-10 07:00:00 9 14 Oeste 24 Oeste 0 -- -- 90
2020-02-10 06:00:00 8.8 8 Oeste 19 Oeste 0 -- -- 87
2020-02-10 05:00:00 8.5 2 Sur 12 Oeste 0 -- -- 89
2020-02-10 04:00:00 8.6 6 Sudoeste 14 Sudoeste 0 -- -- 87
2020-02-10 03:00:00 9.3 6 Oeste 12 Sudoeste 0 -- -- 87
2020-02-10 02:00:00 9.3 9 Sudoeste 20 Sudoeste 0 -- -- 86
2020-02-10 01:00:00 9.5 10 Sudoeste 21 Oeste 0 -- -- 86
2020-02-10 00:00:00 9.4 12 Sudoeste 22 Oeste 0 -- -- 87
2020-02-09 23:00:00 9.7 12 Oeste 26 Oeste 0 -- -- 86
2020-02-09 22:00:00 9.8 12 Oeste 22 Oeste 0 -- -- 85
2020-02-09 21:00:00 10.2 16 Oeste 23 Oeste 0 -- -- 83
2020-02-09 20:00:00 10.4 15 Oeste 27 Oeste 0 -- -- 82
2020-02-09 19:00:00 11.1 17 Oeste 27 Oeste 0 -- -- 79
2020-02-09 18:00:00 11.9 16 Oeste 27 Oeste 0 -- -- 75
2020-02-09 17:00:00 12.3 17 Oeste 24 Oeste 0 -- -- 72
2020-02-09 16:00:00 12.2 11 Oeste 26 Oeste 0 -- -- 72
2020-02-09 15:00:00 12.3 17 Oeste 31 Oeste 0 -- -- 72
2020-02-09 14:00:00 12.2 15 Oeste 30 Oeste 0 -- -- 74
2020-02-09 13:00:00 11.7 16 Oeste 26 Oeste 0 -- -- 76
2020-02-09 12:00:00 11 14 Oeste 25 Oeste 0 -- -- 79
2020-02-09 11:00:00 10.1 10 Sudoeste 18 Oeste 0 -- -- 85
2020-02-09 10:00:00 6.3 7 Sudoeste 13 Sur 0 -- -- 94
2020-02-09 09:00:00 4.8 8 Sur 14 Sur 0 -- -- 94
2020-02-09 08:00:00 4.6 9 Sur 14 Sur 0 -- -- 94
2020-02-09 07:00:00 4.2 7 Sur 13 Sur 0 -- -- 93
2020-02-09 06:00:00 3.9 7 Sur 12 Sudoeste 0 -- -- 96
2020-02-09 05:00:00 3.3 4 Sudoeste 9 Sudoeste 0 -- -- 96
2020-02-09 04:00:00 3.5 4 Sudoeste 11 Sur 0 -- -- 97
2020-02-09 03:00:00 3.3 6 Sur 9 Sudoeste 0 -- -- 97
2020-02-09 02:00:00 2.9 6 Sudoeste 10 Sudoeste 0 -- -- 97
2020-02-09 01:00:00 2.5 7 Sur 11 Sur 0 -- -- 96
2020-02-09 00:00:00 2.4 6 Sur 11 Sur 0 -- -- 96
2020-02-08 23:00:00 2.7 5 Sur 11 Sur 0 -- -- 94
2020-02-08 22:00:00 3.6 6 Sur 14 Sur 0 -- -- 93
2020-02-08 21:00:00 4.9 5 Sudoeste 6 Sur 0 -- -- 89
2020-02-08 20:00:00 6.7 3 Sudoeste 5 Oeste 0 -- -- 84
2020-02-08 19:00:00 9 5 Noroeste 19 Oeste 0 -- -- 76
2020-02-08 18:00:00 11.6 12 Noroeste 29 Noroeste 0 -- -- 64
2020-02-08 17:00:00 12.3 13 Noroeste 28 Oeste 0 -- -- 66
2020-02-08 16:00:00 11.8 15 Noroeste 29 Oeste 0.2 -- -- 70
2020-02-08 15:00:00 11.5 15 Oeste 25 Oeste 0 -- -- 72
2020-02-08 14:00:00 10.1 9 Sudoeste 20 Sudoeste 0 -- -- 82
2020-02-08 13:00:00 8.7 13 Oeste 21 Oeste 0.2 -- -- 91
2020-02-08 12:00:00 7.8 12 Oeste 21 Oeste 1.4 -- -- 94
2020-02-08 11:00:00 6.2 6 Sudoeste 13 Sudoeste 0 -- -- 92
2020-02-08 10:00:00 5.4 5 Sudoeste 10 Sur 0 -- -- 92
2020-02-08 09:00:00 4.3 6 Sudoeste 12 Sur 0 -- -- 92
2020-02-08 08:00:00 4.3 8 Sur 15 Sur 0 -- -- 92
2020-02-08 07:00:00 2.2 9 Sudoeste 14 Sudoeste 0 -- -- 96
2020-02-08 06:00:00 1.7 5 Sudoeste 12 Sur 0 -- -- 95
2020-02-08 05:00:00 2.1 7 Sudoeste 12 Sur 0 -- -- 93
2020-02-08 04:00:00 3.7 6 Sur 13 Sur 0 -- -- 91
2020-02-08 03:00:00 5.4 9 Sur 21 Oeste 0 -- -- 90
2020-02-08 02:00:00 8.1 14 Oeste 24 Oeste 0 -- -- 83
2020-02-08 01:00:00 7.8 10 Oeste 17 Sudoeste 0 -- -- 84
2020-02-08 00:00:00 7.9 5 Sudoeste 19 Oeste 0 -- -- 84
2020-02-07 23:00:00 8.5 14 Oeste 19 Oeste 0 -- -- 84
2020-02-07 22:00:00 8.5 11 Oeste 23 Oeste 0 -- -- 82
2020-02-07 21:00:00 9.5 13 Oeste 19 Oeste 0 -- -- 79
2020-02-07 20:00:00 9.2 3 Sudoeste 5 Sudoeste 0 -- -- 80
2020-02-07 19:00:00 10.7 2 Sur 5 Norte 0 -- -- 71
2020-02-07 18:00:00 12 4 Noroeste 17 Oeste 0 -- -- 66
2020-02-07 17:00:00 13.4 6 Noroeste 17 Oeste 0 -- -- 58
2020-02-07 16:00:00 13.6 8 Oeste 17 Oeste 0 -- -- 59
2020-02-07 15:00:00 13.2 6 Oeste 14 Sur 0 -- -- 62
2020-02-07 14:00:00 11.4 4 Sur 15 Sur 0 -- -- 71
2020-02-07 13:00:00 9.5 3 Sur 8 Sudoeste 0 -- -- 80
2020-02-07 12:00:00 7.7 4 Sur 8 Sur 0 -- -- 87
2020-02-07 11:00:00 5.5 5 Sur 9 Sur 0 -- -- 92
2020-02-07 10:00:00 2.8 6 Sur 10 Sur 0 -- -- 96
2020-02-07 09:00:00 1 4 Sudoeste 10 Sur 0 -- -- 97
2020-02-07 08:00:00 1.2 6 Sudoeste 9 Sudoeste 0 -- -- 96
2020-02-07 07:00:00 1.7 5 Sudoeste 8 Sudoeste 0 -- -- 95
2020-02-07 06:00:00 2.5 3 Sudoeste 7 Sudoeste 0 -- -- 94
2020-02-07 05:00:00 2.5 4 Sur 8 Oeste 0 -- -- 92
2020-02-07 04:00:00 3.4 5 Sudoeste 10 Sudoeste 0 -- -- 92
2020-02-07 03:00:00 3.5 3 Sudoeste 6 Sudoeste 0 -- -- 93
2020-02-07 02:00:00 4.1 3 Sudoeste 9 Sur 0 -- -- 92
2020-02-07 01:00:00 3.6 3 Sudoeste 10 Sur 0 -- -- 87
2020-02-07 00:00:00 4.4 5 Sur 10 Sur 0 -- -- 86
2020-02-06 23:00:00 4.9 4 Sur 9 Sur 0 -- -- 82
2020-02-06 22:00:00 5.1 4 Sur 5 Sur 0 -- -- 83
2020-02-06 21:00:00 6 0 Calma 8 Sudoeste 0 -- -- 81
2020-02-06 20:00:00 7.7 5 Sur 7 Sur 0 -- -- 76
2020-02-06 19:00:00 10.6 3 Norte 14 Norte 0 -- -- 65
2020-02-06 18:00:00 12.5 9 Norte 17 Norte 0 -- -- 56
2020-02-06 17:00:00 13.9 11 Norte 17 Norte 0 -- -- 51
2020-02-06 16:00:00 13.7 12 Norte 18 Norte 0 -- -- 58
2020-02-06 15:00:00 15.6 9 Norte 14 Norte 0 -- -- 53
2020-02-06 14:00:00 15.7 8 Oeste 16 Sudoeste 0 -- -- 42
2020-02-06 13:00:00 14.7 8 Sudoeste 14 Sudoeste 0 -- -- 47
2020-02-06 12:00:00 12.6 7 Sudoeste 10 Sur 0 -- -- 57
2020-02-06 11:00:00 8.9 4 Sudoeste 9 Sur 0 -- -- 75
2020-02-06 10:00:00 4.4 4 Sudeste 9 Sudoeste 0 -- -- 91
2020-02-06 09:00:00 0.3 6 Sudoeste 9 Sur 0 -- -- 95
2020-02-06 08:00:00 -0.2 4 Sur 6 Sur 0 -- -- 92
2020-02-06 07:00:00 0.8 0 Calma 6 Sur 0 -- -- 89
2020-02-06 06:00:00 3 3 Sudoeste 12 Sudoeste 0 -- -- 87
2020-02-06 05:00:00 3.4 9 Oeste 10 Oeste 0 -- -- 89
2020-02-06 04:00:00 4.6 7 Sur 19 Sudoeste 0 -- -- 80
2020-02-06 03:00:00 5.2 8 Sudoeste 17 Sudoeste 0 -- -- 74
2020-02-06 02:00:00 3.7 10 Sudoeste 17 Sudoeste 0 -- -- 80
2020-02-06 01:00:00 1.3 5 Sur 9 Sur 0 -- -- 85
2020-02-06 00:00:00 2 7 Sur 12 Sur 0 -- -- 82
2020-02-05 23:00:00 1.7 3 Sudoeste 6 Sur 0 -- -- 86
2020-02-05 22:00:00 2.4 3 Sudoeste 11 Sudoeste 0 -- -- 86
2020-02-05 21:00:00 4.2 0 Calma 3 Noroeste 0 -- -- 80
2020-02-05 20:00:00 5.8 0 Calma 5 Oeste 0 -- -- 74
2020-02-05 19:00:00 9.3 2 Norte 6 Este 0 -- -- 60
2020-02-05 18:00:00 11.7 3 Este 12 Este 0 -- -- 47
2020-02-05 17:00:00 12 7 Nordeste 12 Nordeste 0 -- -- 41
2020-02-05 16:00:00 11.5 5 Este 11 Este 0 -- -- 47
2020-02-05 15:00:00 10 4 Nordeste 12 Este 0 -- -- 54
2020-02-05 14:00:00 8.4 7 Este 13 Este 0 -- -- 60
2020-02-05 13:00:00 6.5 6 Este 12 Nordeste 0 -- -- 68
2020-02-05 12:00:00 4.9 5 Este 11 Este 0 -- -- 77
2020-02-05 11:00:00 3.4 5 Este 10 Norte 0 -- -- 82
2020-02-05 10:00:00 1.5 0 Calma 6 Sur 0 -- -- 94
2020-02-05 09:00:00 -0.9 0 Calma 8 Norte 0 -- -- 97
2020-02-05 08:00:00 -1.5 4 Norte 5 Norte 0 -- -- 95
2020-02-05 07:00:00 -1.2 0 Calma 4 Nordeste 0 -- -- 94
2020-02-05 06:00:00 -0.7 0 Calma 4 Nordeste 0 -- -- 93
2020-02-05 05:00:00 1.2 0 Calma 6 Sudeste 0 -- -- 88
2020-02-05 04:00:00 2.6 3 Sudeste 10 Nordeste 0 -- -- 87
2020-02-05 03:00:00 3.8 7 Nordeste 15 Nordeste 0 -- -- 85
2020-02-05 02:00:00 4.6 9 Este 22 Este 0 -- -- 82
2020-02-05 01:00:00 4.8 9 Este 13 Este 0 -- -- 87
2020-02-05 00:00:00 5.5 4 Este 10 Este 0 -- -- 88
2020-02-04 23:00:00 6.5 4 Este 13 Este 0 -- -- 85
2020-02-04 22:00:00 7.2 3 Sudeste 13 Nordeste 0 -- -- 86
2020-02-04 21:00:00 8.5 8 Este 17 Este 0 -- -- 84
2020-02-04 20:00:00 8.5 0 Calma 8 Nordeste 0 -- -- 88
2020-02-04 19:00:00 10.3 5 Norte 12 Norte 0 -- -- 84
2020-02-04 18:00:00 12.3 8 Norte 17 Norte 0 -- -- 78
2020-02-04 12:00:00 -- -- -- -- -- -- -- -- --
2020-02-04 11:00:00 10.3 0 Calma 16 Sudoeste 0 -- -- 85
2020-02-04 10:00:00 4.8 9 Sudoeste 14 Sudoeste 0 -- -- 90
2020-02-04 09:00:00 1.5 6 Sur 12 Sur 0 -- -- 94
2020-02-04 08:00:00 2 7 Sur 12 Sur 0 -- -- 90
2020-02-04 07:00:00 2.5 6 Sur 11 Sur 0 -- -- 93
2020-02-04 06:00:00 2.4 5 Sur 10 Sur 0 -- -- 95
2020-02-04 05:00:00 2.8 6 Sudoeste 9 Sur 0 -- -- 95
2020-02-04 04:00:00 3.6 5 Sudoeste 10 Sur 0 -- -- 94
2020-02-04 03:00:00 3.7 5 Sur 9 Sur 0 -- -- 95
2020-02-04 02:00:00 4 4 Sur 12 Sur 0 -- -- 93
2020-02-04 01:00:00 4.7 6 Sudoeste 13 Sudoeste 0 -- -- 92
2020-02-04 00:00:00 5.2 8 Sur 12 Sur 0 -- -- 90
2020-02-03 23:00:00 6 7 Sur 12 Sur 0 -- -- 87
2020-02-03 22:00:00 7.3 7 Sur 9 Sur 0 -- -- 86
2020-02-03 21:00:00 8.3 6 Sur 11 Sudoeste 0 -- -- 85
2020-02-03 20:00:00 10.5 3 Sur 8 Sur 0 -- -- 79
2020-02-03 19:00:00 13.2 5 Sudoeste 11 Sur 0 -- -- 71
2020-02-03 18:00:00 15.5 3 Sudoeste 8 Sudoeste 0 -- -- 61
2020-02-03 17:00:00 16.6 5 Noroeste 14 Norte 0 -- -- 60
2020-02-03 16:00:00 16.4 7 Norte 15 Norte 0 -- -- 61
2020-02-03 15:00:00 17.1 8 Noroeste 16 Noroeste 0 -- -- 57
2020-02-03 14:00:00 17.7 7 Noroeste 13 Noroeste 0 -- -- 49
2020-02-03 13:00:00 16.6 6 Noroeste 14 Noroeste 0 -- -- 49
2020-02-03 12:00:00 15 5 Oeste 15 Sur 0 -- -- 64
2020-02-03 11:00:00 11.1 8 Sudeste 13 Sur 0 -- -- 70
2020-02-03 10:00:00 4.6 2 Sur 6 Sur 0 -- -- 95
2020-02-03 09:00:00 3.3 4 Sudoeste 8 Sudoeste 0 -- -- 99
2020-02-03 08:00:00 2.8 2 Sudoeste 8 Sudoeste 0 -- -- 99
2020-02-03 07:00:00 3.3 3 Sudoeste 10 Sur 0 -- -- 99
2020-02-03 06:00:00 3.8 5 Sur 9 Sur 0 -- -- 99
2020-02-03 05:00:00 4.1 4 Sur 9 Sudoeste 0 -- -- 99
2020-02-03 04:00:00 4.6 6 Sur 9 Sudoeste 0 -- -- 99
2020-02-03 03:00:00 5 4 Sur 8 Sudoeste 0 -- -- 98
2020-02-03 02:00:00 5.8 4 Sudoeste 6 Sudoeste 0 -- -- 98
2020-02-03 01:00:00 6.8 4 Sur 8 Sur 0 -- -- 98
2020-02-03 00:00:00 7.1 4 Sudoeste 11 Sur 0 -- -- 97
2020-02-02 23:00:00 8.2 7 Sur 10 Sur 0 -- -- 97
2020-02-02 22:00:00 8.9 0 Calma 8 Oeste 0 -- -- 95
2020-02-02 21:00:00 10 4 Sudeste 8 Sudoeste 0 -- -- 93
2020-02-02 20:00:00 11.4 3 Sur 5 Sudoeste 0 -- -- 90
2020-02-02 19:00:00 13.7 2 Sur 4 Sur 0 -- -- 82
2020-02-02 18:00:00 15.6 3 Norte 9 Noroeste 0 -- -- 76
2020-02-02 17:00:00 16.2 5 Noroeste 10 Noroeste 0 -- -- 72
2020-02-02 16:00:00 16.7 5 Noroeste 12 Noroeste 0 -- -- 69
2020-02-02 15:00:00 15.8 6 Noroeste 10 Noroeste 0 -- -- 70
2020-02-02 14:00:00 15 3 Sudoeste 7 Sur 0 -- -- 74
2020-02-02 13:00:00 13.8 4 Oeste 9 Noroeste 0 -- -- 78
2020-02-02 12:00:00 12.9 4 Sur 11 Sudoeste 0 -- -- 80
2020-02-02 11:00:00 9.6 5 Sudoeste 11 Sur 0 -- -- 96
2020-02-02 10:00:00 6.3 7 Sur 10 Sur 0 -- -- 99
2020-02-02 09:00:00 4.9 5 Sudoeste 11 Sur 0 -- -- 99
2020-02-02 08:00:00 5.1 5 Sur 10 Sur 0 -- -- 98
2020-02-02 07:00:00 5.6 5 Sur 12 Sur 0 -- -- 98
2020-02-02 06:00:00 5.5 8 Sudoeste 14 Sur 0 -- -- 97
2020-02-02 05:00:00 5.7 3 Sur 11 Sur 0 -- -- 96
2020-02-02 04:00:00 6.2 5 Sudoeste 9 Sur 0 -- -- 95
2020-02-02 03:00:00 6.9 6 Sur 12 Sur 0 -- -- 94
2020-02-02 02:00:00 8 7 Sur 11 Sur 0 -- -- 94
2020-02-02 01:00:00 9.2 4 Sur 15 Oeste 0 -- -- 92
2020-02-02 00:00:00 11.3 14 Oeste 24 Oeste 0 -- -- 86
2020-02-01 23:00:00 11.7 17 Oeste 25 Oeste 0 -- -- 87
2020-02-01 22:00:00 10.6 4 Sudoeste 18 Oeste 0 -- -- 91
2020-02-01 21:00:00 10.7 5 Sudoeste 11 Sudoeste 0 -- -- 91
2020-02-01 20:00:00 11.1 5 Sudoeste 11 Sudoeste 0 -- -- 89
2020-02-01 19:00:00 12.6 6 Oeste 17 Oeste 0 -- -- 84
2020-02-01 18:00:00 14.6 11 Oeste 22 Oeste 0 -- -- 77
2020-02-01 17:00:00 15.1 10 Noroeste 25 Noroeste 0 -- -- 76
2020-02-01 16:00:00 15.2 12 Noroeste 23 Oeste 0 -- -- 77
2020-02-01 15:00:00 15.6 15 Oeste 28 Oeste 0 -- -- 75
2020-02-01 14:00:00 15.2 17 Oeste 32 Oeste 0 -- -- 76
2020-02-01 13:00:00 14.2 17 Noroeste 30 Oeste 0 -- -- 82
2020-02-01 12:00:00 13.3 16 Oeste 27 Noroeste 0 -- -- 86
2020-02-01 11:00:00 12.4 22 Oeste 29 Oeste 0 -- -- 88
2020-02-01 10:00:00 11.5 16 Oeste 29 Oeste 0 -- -- 92
2020-02-01 09:00:00 10.8 11 Noroeste 27 Oeste 0 -- -- 95
2020-02-01 08:00:00 11.1 15 Oeste 27 Oeste 0 -- -- 96
2020-02-01 07:00:00 11.3 15 Oeste 26 Noroeste 0 -- -- 96
2020-02-01 06:00:00 11.4 12 Oeste 27 Oeste 0 -- -- 95
2020-02-01 05:00:00 11.5 14 Oeste 30 Oeste 0 -- -- 95
2020-02-01 04:00:00 11.7 18 Oeste 33 Oeste 0.2 -- -- 94
2020-02-01 03:00:00 11.7 22 Oeste 35 Oeste 0 -- -- 93
2020-02-01 02:00:00 10.9 12 Sudoeste 22 Oeste 0 -- -- 93
2020-02-01 01:00:00 10.9 9 Sudoeste 18 Oeste 0 -- -- 92
2020-02-01 00:00:00 10.6 6 Sur 13 Sudoeste 0.4 -- -- 94
2020-01-31 23:00:00 11.1 7 Sudoeste 21 Sudoeste 0 -- -- 91
2020-01-31 22:00:00 11.1 8 Sudoeste 19 Sudoeste 0 -- -- 89
2020-01-31 21:00:00 11.6 9 Oeste 16 Oeste 0 -- -- 87
2020-01-31 20:00:00 11.7 6 Sudoeste 10 Oeste 0 -- -- 85
2020-01-31 19:00:00 12.5 8 Oeste 14 Oeste 0 -- -- 79
2020-01-31 18:00:00 13.1 6 Oeste 21 Oeste 0 -- -- 77
2020-01-31 17:00:00 14.7 13 Oeste 22 Oeste 0 -- -- 70
2020-01-31 16:00:00 14.1 12 Noroeste 23 Oeste 0 -- -- 70
2020-01-31 15:00:00 13.7 17 Noroeste 28 Oeste 0 -- -- 73
2020-01-31 14:00:00 13.4 14 Noroeste 26 Oeste 0 -- -- 74
2020-01-31 13:00:00 12.6 10 Oeste 17 Sudoeste 0 -- -- 75
2020-01-31 12:00:00 12.4 11 Oeste 20 Oeste 0 -- -- 73
2020-01-31 11:00:00 10.9 10 Oeste 17 Oeste 0 -- -- 94
2020-01-31 10:00:00 9.6 6 Oeste 21 Oeste 0 -- -- 97
2020-01-31 09:00:00 9.1 5 Sudoeste 10 Sudoeste 0.2 -- -- 96
2020-01-31 08:00:00 9 4 Sur 18 Oeste 0 -- -- 97
2020-01-31 07:00:00 9.4 11 Oeste 21 Oeste 0 -- -- 95
2020-01-31 06:00:00 9.6 14 Oeste 22 Oeste 0 -- -- 95
2020-01-31 05:00:00 9.5 5 Noroeste 25 Oeste 0.2 -- -- 96
2020-01-31 04:00:00 9.7 15 Oeste 31 Oeste 0 -- -- 95
2020-01-31 03:00:00 10 20 Oeste 29 Oeste 0 -- -- 92
2020-01-31 02:00:00 10 18 Oeste 36 Oeste 0 -- -- 91
2020-01-31 01:00:00 9.8 23 Oeste 33 Oeste 0 -- -- 91
2020-01-31 00:00:00 9.9 19 Oeste 34 Oeste 0 -- -- 89
2020-01-30 23:00:00 9.9 22 Oeste 35 Oeste 0 -- -- 87
2020-01-30 22:00:00 9.8 19 Oeste 32 Oeste 0 -- -- 88
2020-01-30 21:00:00 9.4 20 Oeste 30 Oeste 0.2 -- -- 89
2020-01-30 20:00:00 9.4 12 Oeste 20 Oeste 0 -- -- 91
2020-01-30 19:00:00 9 7 Sur 13 Sur 0.2 -- -- 94
2020-01-30 18:00:00 9.2 9 Sur 13 Sur 0 -- -- 91
2020-01-30 17:00:00 9.1 9 Sur 15 Sur 0 -- -- 90
2020-01-30 16:00:00 9.3 8 Sudoeste 22 Oeste 0 -- -- 88
2020-01-30 15:00:00 9.5 13 Sudoeste 28 Oeste 0 -- -- 85
2020-01-30 14:00:00 9.9 19 Oeste 34 Oeste 0 -- -- 78
2020-01-30 13:00:00 9.8 17 Oeste 33 Oeste 0 -- -- 80
2020-01-30 12:00:00 9 13 Oeste 23 Sudoeste 0 -- -- 85
2020-01-30 11:00:00 7.8 5 Sudoeste 15 Sur 0 -- -- 89
2020-01-30 10:00:00 6.8 8 Sudoeste 20 Oeste 0 -- -- 91
2020-01-30 09:00:00 6.4 9 Oeste 23 Oeste 0 -- -- 93
2020-01-30 08:00:00 4.4 7 Sudoeste 14 Sudoeste 0 -- -- 96
2020-01-30 07:00:00 5.1 7 Sudoeste 11 Oeste 0 -- -- 91
2020-01-30 06:00:00 6.7 9 Sudoeste 18 Sudoeste 0 -- -- 91
2020-01-30 05:00:00 6.5 6 Sudoeste 13 Sudoeste 0 -- -- 92
2020-01-30 04:00:00 7.3 9 Sudoeste 26 Oeste 0 -- -- 90
2020-01-30 03:00:00 7.9 18 Oeste 28 Oeste 0 -- -- 89
2020-01-30 02:00:00 8.3 9 Oeste 35 Oeste 0 -- -- 90
2020-01-30 01:00:00 8.7 11 Oeste 26 Sudoeste 0 -- -- 89
2020-01-30 00:00:00 8.9 14 Oeste 27 Oeste 0 -- -- 94
2020-01-29 23:00:00 8.8 10 Oeste 18 Oeste 0 -- -- 94
2020-01-29 22:00:00 9.2 11 Oeste 26 Oeste 0 -- -- 93
2020-01-29 21:00:00 9.6 16 Oeste 26 Oeste 0 -- -- 92
2020-01-29 20:00:00 9.8 10 Oeste 23 Oeste 0.2 -- -- 93
2020-01-29 19:00:00 10.4 13 Oeste 29 Oeste 0 -- -- 90
2020-01-29 18:00:00 11.1 17 Oeste 29 Oeste 0 -- -- 87
2020-01-29 17:00:00 11.7 20 Oeste 38 Oeste 0 -- -- 84
2020-01-29 16:00:00 11.2 10 Oeste 21 Oeste 0.2 -- -- 88
2020-01-29 15:00:00 10.7 4 Oeste 15 Sudoeste 1.2 -- -- 90
2020-01-29 14:00:00 10.7 7 Oeste 23 Oeste 0.8 -- -- 86
2020-01-29 13:00:00 11.2 14 Oeste 28 Oeste 0.2 -- -- 82
2020-01-29 12:00:00 10.9 20 Oeste 32 Oeste 0 -- -- 81
2020-01-29 11:00:00 10.3 19 Oeste 27 Oeste 0 -- -- 86
2020-01-29 10:00:00 9 17 Oeste 25 Oeste 0 -- -- 92
2020-01-29 09:00:00 8.7 14 Oeste 29 Oeste 0 -- -- 93
2020-01-29 08:00:00 8.8 18 Oeste 29 Oeste 0 -- -- 93
2020-01-29 07:00:00 8.9 18 Oeste 29 Oeste 0 -- -- 94
2020-01-29 06:00:00 8.8 17 Oeste 27 Oeste 0 -- -- 94
2020-01-29 05:00:00 9.1 15 Oeste 24 Oeste 0 -- -- 92
2020-01-29 04:00:00 9.2 18 Oeste 30 Oeste 0 -- -- 92
2020-01-29 03:00:00 9.1 18 Oeste 26 Oeste 0 -- -- 93
2020-01-29 02:00:00 9.4 13 Oeste 26 Oeste 0 -- -- 92
2020-01-29 01:00:00 9.7 18 Oeste 32 Oeste 0 -- -- 91
2020-01-29 00:00:00 9.9 20 Oeste 32 Oeste 0 -- -- 92
2020-01-28 23:00:00 9.9 20 Oeste 31 Oeste 0 -- -- 92
2020-01-28 22:00:00 9.9 19 Oeste 32 Oeste 0 -- -- 95
2020-01-28 21:00:00 9.9 21 Oeste 37 Oeste 0 -- -- 94
2020-01-28 20:00:00 10 16 Oeste 28 Sudoeste 0 -- -- 94
2020-01-28 19:00:00 10 17 Oeste 32 Oeste 0 -- -- 94
2020-01-28 18:00:00 10.2 19 Oeste 36 Oeste 0.2 -- -- 93
2020-01-28 17:00:00 11.1 18 Oeste 39 Oeste 0 -- -- 90
2020-01-28 16:00:00 11.1 24 Oeste 36 Oeste 0.2 -- -- 92
2020-01-28 15:00:00 11 21 Oeste 39 Oeste 0.2 -- -- 93
2020-01-28 14:00:00 10.6 23 Oeste 39 Oeste 0 -- -- 93
2020-01-28 13:00:00 11.3 28 Oeste 45 Oeste 0 -- -- 87
2020-01-28 12:00:00 11.6 26 Oeste 42 Oeste 0 -- -- 84
2020-01-28 11:00:00 10.8 19 Oeste 34 Oeste 0 -- -- 87
2020-01-28 10:00:00 9.6 17 Oeste 33 Sudoeste 0 -- -- 91
2020-01-28 09:00:00 8.9 18 Oeste 32 Sudoeste 0 -- -- 93
2020-01-28 08:00:00 8.7 16 Oeste 36 Oeste 0 -- -- 92
2020-01-28 07:00:00 8.9 22 Oeste 37 Oeste 0 -- -- 92
2020-01-28 06:00:00 8.8 25 Oeste 40 Oeste 0.4 -- -- 93
2020-01-28 05:00:00 9 24 Oeste 42 Oeste 0 -- -- 91
2020-01-28 04:00:00 9.3 23 Oeste 42 Oeste 0 -- -- 90
2020-01-28 03:00:00 9 23 Oeste 42 Oeste 0 -- -- 91
2020-01-28 02:00:00 9.2 20 Oeste 40 Sudoeste 0 -- -- 90
2020-01-28 01:00:00 9 28 Oeste 45 Oeste 0 -- -- 89
2020-01-28 00:00:00 8.7 23 Oeste 35 Oeste 0 -- -- 89
2020-01-27 23:00:00 7.9 16 Oeste 32 Oeste 0 -- -- 92
2020-01-27 22:00:00 7.9 19 Oeste 38 Oeste 0 -- -- 91
2020-01-27 21:00:00 8 20 Oeste 37 Oeste 0 -- -- 89
2020-01-27 20:00:00 8.1 23 Oeste 41 Oeste 0 -- -- 86
2020-01-27 19:00:00 8 26 Oeste 51 Oeste 0 -- -- 83
2020-01-27 18:00:00 8.9 27 Oeste 44 Oeste 0 -- -- 79
2020-01-27 17:00:00 9.6 30 Oeste 53 Oeste 0 -- -- 73
2020-01-27 16:00:00 9.5 27 Oeste 64 Oeste 0 -- -- 72
2020-01-27 15:00:00 10.1 40 Oeste 58 Oeste 0 -- -- 72
2020-01-27 14:00:00 10.5 24 Oeste 50 Oeste 0 -- -- 72
2020-01-27 13:00:00 10.2 27 Oeste 50 Sudoeste 0 -- -- 69
2020-01-27 12:00:00 8.7 12 Sudoeste 24 Sudoeste 0 -- -- 72
2020-01-27 11:00:00 7.5 12 Sudoeste 26 Sudoeste 0 -- -- 70
2020-01-27 10:00:00 5 9 Sur 20 Sur 0 -- -- 81
2020-01-27 09:00:00 3.3 9 Sur 18 Sur 0 -- -- 89
2020-01-27 08:00:00 3.8 8 Sur 18 Sudoeste 0 -- -- 88
2020-01-27 07:00:00 2.9 6 Sudoeste 14 Sudoeste 0 -- -- 92
2020-01-27 06:00:00 2.1 8 Sudoeste 16 Sudoeste 0 -- -- 90
2020-01-27 05:00:00 2.6 8 Sudoeste 17 Sudoeste 0 -- -- 90
2020-01-27 04:00:00 3 7 Sudoeste 18 Sudoeste 0 -- -- 87
2020-01-27 03:00:00 4.6 12 Sudoeste 18 Sudoeste 0 -- -- 83
2020-01-27 02:00:00 5.6 10 Sudoeste 19 Sudoeste 0 -- -- 80
2020-01-27 01:00:00 5.5 5 Sudoeste 11 Sudoeste 0 -- -- 85
2020-01-27 00:00:00 6 7 Sudoeste 15 Sudoeste 0 -- -- 84
2020-01-26 23:00:00 5.9 10 Sudoeste 15 Sudoeste 0 -- -- 86
2020-01-26 22:00:00 5.9 8 Sudoeste 14 Sudoeste 0 -- -- 86
2020-01-26 21:00:00 5.9 4 Sudoeste 11 Sudoeste 0 -- -- 86
2020-01-26 20:00:00 6.1 5 Sudoeste 9 Sudoeste 0 -- -- 86
2020-01-26 19:00:00 6.6 2 Oeste 14 Noroeste 0 -- -- 79
2020-01-26 18:00:00 7.4 10 Noroeste 20 Noroeste 0 -- -- 76
2020-01-26 17:00:00 8 14 Noroeste 25 Noroeste 0 -- -- 66
2020-01-26 16:00:00 8.3 10 Noroeste 23 Noroeste 0 -- -- 66
2020-01-26 15:00:00 8.4 14 Oeste 23 Oeste 0 -- -- 64
2020-01-26 14:00:00 7.9 9 Noroeste 26 Noroeste 0 -- -- 78
2020-01-26 13:00:00 6.7 11 Noroeste 19 Noroeste 0 -- -- 85
2020-01-26 12:00:00 5.4 6 Noroeste 18 Oeste 0 -- -- 92
2020-01-26 11:00:00 4.4 5 Oeste 17 Noroeste 0 -- -- 95
2020-01-26 10:00:00 2.7 2 Sudoeste 8 Sudoeste 0 -- -- 100
2020-01-26 09:00:00 1.1 3 Sudoeste 6 Sur 0 -- -- 98
2020-01-26 08:00:00 1.9 5 Sur 9 Oeste 0 -- -- 99
2020-01-26 07:00:00 2.4 6 Oeste 9 Oeste 0 -- -- 98
2020-01-26 06:00:00 3.2 6 Oeste 12 Oeste 0 -- -- 99
2020-01-26 05:00:00 3 6 Oeste 10 Oeste 0 -- -- 99
2020-01-26 04:00:00 2.5 3 Sur 8 Oeste 0 -- -- 98
2020-01-26 03:00:00 3.6 5 Noroeste 22 Oeste 0 -- -- 98
2020-01-26 02:00:00 4.2 9 Noroeste 19 Noroeste 0 -- -- 98
2020-01-26 01:00:00 4.8 6 Noroeste 15 Oeste 0 -- -- 97
2020-01-26 00:00:00 4.8 6 Oeste 11 Noroeste 0 -- -- 96
2020-01-25 23:00:00 5.4 6 Noroeste 10 Noroeste 0 -- -- 96
2020-01-25 22:00:00 5.6 2 Noroeste 9 Norte 0 -- -- 95
2020-01-25 21:00:00 6.2 5 Noroeste 9 Norte 0 -- -- 93
2020-01-25 20:00:00 6.5 4 Noroeste 9 Nordeste 0 -- -- 91
2020-01-25 19:00:00 6.9 3 Noroeste 10 Norte 0 -- -- 87
2020-01-25 18:00:00 7.4 4 Norte 20 Norte 0 -- -- 85
2020-01-25 17:00:00 8.4 11 Norte 16 Norte 0 -- -- 79
2020-01-25 16:00:00 8.8 11 Noroeste 17 Norte 0 -- -- 76
2020-01-25 15:00:00 9.8 8 Noroeste 15 Oeste 0 -- -- 71
2020-01-25 14:00:00 9.8 7 Noroeste 16 Noroeste 0 -- -- 74
2020-01-25 13:00:00 9 7 Sudoeste 19 Sudoeste 0 -- -- 78
2020-01-25 12:00:00 7.7 11 Sur 18 Sur 0 -- -- 85
2020-01-25 11:00:00 7.1 5 Sur 14 Sur 0 -- -- 90
2020-01-25 10:00:00 4.9 4 Este 11 Este 0 -- -- 93
2020-01-25 09:00:00 3.8 4 Este 10 Este 0.2 -- -- 94
2020-01-25 08:00:00 4.6 8 Sudeste 15 Sudeste 0.6 -- -- 92
2020-01-25 07:00:00 4.1 4 Sudeste 9 Sudeste 0.4 -- -- 95
2020-01-25 06:00:00 3.5 3 Este 9 Este 0.8 -- -- 96
2020-01-25 05:00:00 3.3 4 Este 8 Este 0.4 -- -- 97
2020-01-25 04:00:00 2.3 0 Calma 7 Sudeste 0 -- -- 95
2020-01-25 03:00:00 2.4 4 Sudeste 8 Sudeste 0 -- -- 97
2020-01-25 02:00:00 1.1 4 Este 5 Este 0 -- -- 96
2020-01-25 01:00:00 1.2 0 Calma 4 Oeste 0 -- -- 95
2020-01-25 00:00:00 1.7 3 Sudeste 6 Sudeste 0 -- -- 95
2020-01-24 23:00:00 1.9 2 Este 4 Este 0 -- -- 94
2020-01-24 22:00:00 2.5 0 Calma 8 Sudeste 0 -- -- 92
2020-01-24 21:00:00 4 5 Sudeste 8 Este 0 -- -- 88
2020-01-24 20:00:00 5.5 5 Este 6 Nordeste 0 -- -- 86
2020-01-24 19:00:00 7 3 Nordeste 8 Norte 0 -- -- 84
2020-01-24 18:00:00 7.7 5 Norte 11 Noroeste 0 -- -- 81
2020-01-24 17:00:00 8.5 5 Oeste 10 Oeste 0 -- -- 77
2020-01-24 16:00:00 8.2 6 Oeste 19 Oeste 0 -- -- 80
2020-01-24 15:00:00 8.6 8 Sudoeste 20 Sur 0 -- -- 74
2020-01-24 14:00:00 8.7 13 Sur 24 Sur 0 -- -- 72
2020-01-24 13:00:00 8.6 17 Sur 28 Sur 0 -- -- 75
2020-01-24 12:00:00 6.8 12 Sur 20 Sudeste 0.2 -- -- 86
2020-01-24 11:00:00 5.2 8 Sur 20 Sur 0.2 -- -- 90
2020-01-24 10:00:00 5.5 10 Sur 17 Sur 0.8 -- -- 91
2020-01-24 09:00:00 5.5 9 Sur 16 Sur 0.6 -- -- 92
2020-01-24 08:00:00 5.4 8 Sur 21 Sur 0.4 -- -- 92
2020-01-24 07:00:00 5.4 12 Sur 19 Sur 0 -- -- 87
2020-01-24 06:00:00 4.1 7 Sudoeste 10 Sur 0 -- -- 89
2020-01-24 05:00:00 4.3 0 Calma 5 Sudeste 0 -- -- 88
2020-01-24 04:00:00 4.7 5 Sudeste 10 Sur 0 -- -- 86
2020-01-24 03:00:00 5.1 6 Sur 18 Sur 0 -- -- 85
2020-01-24 02:00:00 5.2 10 Sur 17 Sudeste 0 -- -- 84
2020-01-24 01:00:00 5.3 9 Sudeste 21 Sur 0 -- -- 82
2020-01-24 00:00:00 6 13 Sur 22 Sudeste 0 -- -- 80
2020-01-23 23:00:00 5.9 9 Sur 15 Sur 0 -- -- 80
2020-01-23 22:00:00 4.9 6 Sur 13 Sudeste 0 -- -- 82
2020-01-23 21:00:00 5.3 8 Sudeste 19 Sudeste 0 -- -- 77
2020-01-23 20:00:00 6 11 Sur 24 Sur 0 -- -- 75
2020-01-23 19:00:00 6.5 12 Sur 23 Sur 0 -- -- 74
2020-01-23 18:00:00 8.1 14 Sur 22 Sudeste 0 -- -- 67
2020-01-23 17:00:00 9.2 13 Sur 34 Sur 0 -- -- 63
2020-01-23 16:00:00 10 22 Sur 36 Sur 0 -- -- 58
2020-01-23 15:00:00 10.5 21 Sur 33 Sudeste 0 -- -- 58
2020-01-23 14:00:00 9.8 21 Sur 33 Sur 0 -- -- 62
2020-01-23 13:00:00 9.4 21 Sudeste 35 Sudeste 0 -- -- 60
2020-01-23 12:00:00 8.7 17 Sur 27 Sudeste 0 -- -- 61
2020-01-23 11:00:00 5.3 10 Sudeste 16 Este 0 -- -- 78
2020-01-23 10:00:00 1.6 9 Este 17 Este 0 -- -- 88
2020-01-23 09:00:00 1.5 5 Este 16 Este 0 -- -- 87
2020-01-23 08:00:00 3 10 Sur 15 Sur 0 -- -- 85
2020-01-23 07:00:00 2.9 7 Sur 10 Sur 0 -- -- 85
2020-01-23 06:00:00 3.9 7 Sur 19 Sur 0 -- -- 82
2020-01-23 05:00:00 5.2 12 Sur 22 Sur 0 -- -- 78
2020-01-23 04:00:00 4.4 7 Sur 13 Sudeste 0 -- -- 84
2020-01-23 03:00:00 3.9 8 Sur 15 Sur 0 -- -- 90
2020-01-23 02:00:00 3.3 5 Este 10 Este 0 -- -- 89
2020-01-23 01:00:00 3.7 5 Sudeste 9 Sudeste 0 -- -- 89
2020-01-23 00:00:00 4.1 5 Nordeste 10 Este 0 -- -- 86
2020-01-22 23:00:00 4.6 4 Este 8 Sudeste 0 -- -- 86
2020-01-22 22:00:00 5.2 2 Sudeste 16 Sudeste 0 -- -- 82
2020-01-22 21:00:00 5.5 6 Sudeste 11 Sudeste 0 -- -- 80
2020-01-22 20:00:00 5.6 2 Sur 14 Sudeste 0 -- -- 80
2020-01-22 19:00:00 6.5 2 Este 12 Nordeste 0 -- -- 77
2020-01-22 18:00:00 8.5 5 Sudeste 18 Sur 0 -- -- 64
2020-01-22 17:00:00 9.2 12 Sudeste 26 Sur 0 -- -- 58
2020-01-22 16:00:00 9.7 15 Sur 27 Sur 0 -- -- 59
2020-01-22 15:00:00 9.5 15 Sudeste 33 Sudeste 0 -- -- 63
2020-01-22 14:00:00 9.2 11 Sudeste 22 Sur 0 -- -- 67
2020-01-22 13:00:00 7.7 8 Este 22 Este 0 -- -- 75
2020-01-22 12:00:00 5.9 7 Nordeste 16 Este 0 -- -- 88
2020-01-22 11:00:00 2.7 5 Este 18 Este 0 -- -- 91
2020-01-22 10:00:00 2.4 8 Este 22 Este 0 -- -- 90
2020-01-22 09:00:00 2.4 9 Este 23 Este 0 -- -- 90
2020-01-22 08:00:00 2.1 9 Este 19 Este 0 -- -- 91
2020-01-22 07:00:00 2.3 9 Nordeste 19 Este 0 -- -- 90
2020-01-22 06:00:00 2.5 12 Nordeste 24 Nordeste 0 -- -- 89
2020-01-22 05:00:00 2.6 10 Nordeste 28 Nordeste 0 -- -- 92
2020-01-22 04:00:00 3 14 Nordeste 28 Nordeste 0 -- -- 93
2020-01-22 03:00:00 3.2 13 Nordeste 27 Nordeste 0 -- -- 91
2020-01-22 02:00:00 3 18 Nordeste 30 Nordeste 0 -- -- 91
2020-01-22 01:00:00 2.9 12 Nordeste 24 Nordeste 0 -- -- 90
2020-01-22 00:00:00 2.1 10 Nordeste 26 Nordeste 0 -- -- 92